createdAt,value
2024-04-22T00:01:24.141Z,102857.72
2024-04-22T00:04:18.087Z,102859.66
2024-04-22T00:07:06.617Z,102840.16
2024-04-22T00:09:58.331Z,102854.97
2024-04-22T00:12:49.524Z,102852.50
2024-04-22T00:15:37.948Z,102853.06
2024-04-22T00:18:29.448Z,102840.72
2024-04-22T00:21:20.667Z,102830.00
2024-04-22T00:24:12.142Z,102861.03
2024-04-22T00:27:00.618Z,102863.50
2024-04-22T00:29:51.710Z,102845.59
2024-04-22T00:32:40.518Z,102859.84
2024-04-22T00:35:31.740Z,102856.53
2024-04-22T00:38:22.907Z,102853.25
2024-04-22T00:41:14.352Z,102854.91
2024-04-22T00:44:02.797Z,102849.41
2024-04-22T00:46:54.388Z,102848.03
2024-04-22T00:49:43.002Z,102832.63
2024-04-22T00:52:35.410Z,102851.28
2024-04-22T00:55:31.102Z,102850.19
2024-04-22T00:58:20.452Z,102844.69
2024-04-22T01:01:13.861Z,102843.88
2024-04-22T01:04:03.433Z,102840.56
2024-04-22T01:06:54.687Z,102844.44
2024-04-22T01:09:43.411Z,102842.50
2024-04-22T01:12:37.187Z,102846.34
2024-04-22T01:15:25.697Z,102841.66
2024-04-22T01:18:21.257Z,102839.47
2024-04-22T01:21:09.938Z,102837.81
2024-04-22T01:24:05.235Z,102839.22
2024-04-22T01:26:57.601Z,102827.44
2024-04-22T01:29:48.676Z,102826.06
2024-04-22T01:32:37.230Z,102814.50
2024-04-22T01:35:28.662Z,102820.00
2024-04-22T01:38:17.108Z,102828.78
2024-04-22T01:41:11.048Z,102817.81
2024-04-22T01:43:59.541Z,102817.81
2024-04-22T01:46:50.807Z,102817.22
2024-04-22T01:49:39.554Z,102817.78
2024-04-22T01:52:30.761Z,102822.16
2024-04-22T01:55:19.260Z,102816.13
2024-04-22T01:58:15.556Z,102811.69
2024-04-22T02:01:12.564Z,102812.75
2024-04-22T02:04:01.210Z,102810.28
2024-04-22T02:06:52.589Z,102814.03
2024-04-22T02:09:41.440Z,102804.41
2024-04-22T02:12:32.564Z,102811.28
2024-04-22T02:15:23.828Z,102810.94
2024-04-22T02:18:14.901Z,102815.91
2024-04-22T02:21:03.438Z,102800.00
2024-04-22T02:23:54.850Z,102790.63
2024-04-22T02:26:43.281Z,102795.59
2024-04-22T02:29:34.647Z,102812.63
2024-04-22T02:32:25.868Z,102802.72
2024-04-22T02:35:17.213Z,102800.53
2024-04-22T02:38:05.952Z,102798.38
2024-04-22T02:40:57.919Z,102790.13
2024-04-22T02:43:48.484Z,102804.13
2024-04-22T02:46:39.699Z,102796.19
2024-04-22T02:49:33.108Z,102796.69
2024-04-22T02:52:24.312Z,102794.19
2024-04-22T02:55:12.825Z,102792.22
2024-04-22T02:58:04.479Z,102788.88
2024-04-22T03:00:55.848Z,102792.69
2024-04-22T03:03:47.280Z,102775.38
2024-04-22T03:06:38.443Z,102784.72
2024-04-22T03:09:34.083Z,102785.53
2024-04-22T03:12:22.918Z,102773.94
2024-04-22T03:15:14.060Z,102783.78
2024-04-22T03:18:02.576Z,102779.38
2024-04-22T03:20:53.748Z,102785.16
2024-04-22T03:23:44.887Z,102778.84
2024-04-22T03:26:36.007Z,102776.13
2024-04-22T03:29:24.553Z,102770.09
2024-04-22T03:32:15.805Z,102778.84
2024-04-22T03:35:04.697Z,102782.72
2024-04-22T03:37:55.798Z,102772.28
2024-04-22T03:40:49.574Z,102779.41
2024-04-22T03:43:40.816Z,102779.38
2024-04-22T03:46:48.167Z,102774.34
2024-04-22T03:49:59.398Z,102783.91
2024-04-22T03:52:51.303Z,102778.88
2024-04-22T03:55:43.600Z,102776.91
2024-04-22T03:58:37.481Z,102773.88
2024-04-22T04:01:29.081Z,102782.72
2024-04-22T04:04:17.912Z,102766.44
2024-04-22T04:07:09.394Z,102776.88
2024-04-22T04:09:57.816Z,102772.72
2024-04-22T04:12:49.103Z,102767.50
2024-04-22T04:15:40.413Z,102754.00
2024-04-22T04:18:31.607Z,102773.47
2024-04-22T04:21:20.096Z,102754.81
2024-04-22T04:24:11.928Z,102764.09
2024-04-22T04:27:00.449Z,102764.09
2024-04-22T04:29:51.554Z,102752.06
2024-04-22T04:32:45.375Z,102761.34
2024-04-22T04:35:33.897Z,102767.41
2024-04-22T04:38:25.097Z,102769.56
2024-04-22T04:41:13.555Z,102775.56
2024-04-22T04:44:05.049Z,102770.03
2024-04-22T04:46:53.554Z,102766.19
2024-04-22T04:49:47.369Z,102774.13
2024-04-22T04:52:35.987Z,102762.84
2024-04-22T04:55:27.239Z,102773.72
2024-04-22T04:58:16.353Z,102765.97
2024-04-22T05:01:08.273Z,102754.16
2024-04-22T05:03:59.155Z,102755.50
2024-04-22T05:06:53.257Z,102756.59
2024-04-22T05:09:41.741Z,102764.84
2024-04-22T05:12:33.207Z,102756.06
2024-04-22T05:15:21.942Z,102758.84
2024-04-22T05:18:13.323Z,102758.28
2024-04-22T05:21:01.859Z,102765.41
2024-04-22T05:23:56.905Z,102745.59
2024-04-22T05:26:45.441Z,102755.19
2024-04-22T05:29:36.845Z,102752.47
2024-04-22T05:32:25.425Z,102746.19
2024-04-22T05:35:32.721Z,102753.59
2024-04-22T05:38:24.018Z,102740.13
2024-04-22T05:41:17.902Z,102749.97
2024-04-22T05:44:09.199Z,102740.66
2024-04-22T05:47:00.385Z,102746.19
2024-04-22T05:49:51.648Z,102757.22
2024-04-22T05:52:42.806Z,102761.31
2024-04-22T05:55:34.045Z,102754.16
2024-04-22T05:58:25.253Z,102766.75
2024-04-22T06:01:16.532Z,102769.22
2024-04-22T06:04:05.937Z,102766.53
2024-04-22T06:06:57.130Z,102780.00
2024-04-22T06:09:45.573Z,102768.78
2024-04-22T06:12:36.741Z,102763.88
2024-04-22T06:15:28.095Z,102769.44
2024-04-22T06:18:20.207Z,102765.59
2024-04-22T06:21:08.672Z,102750.84
2024-04-22T06:23:59.831Z,102770.94
2024-04-22T06:26:48.303Z,102762.00
2024-04-22T06:29:39.432Z,102761.50
2024-04-22T06:32:36.423Z,102760.75
2024-04-22T06:35:28.394Z,102759.13
2024-04-22T06:38:17.103Z,102765.19
2024-04-22T06:41:08.795Z,102757.53
2024-04-22T06:43:59.894Z,102760.59
2024-04-22T06:46:51.043Z,102760.34
2024-04-22T06:49:42.644Z,102748.59
2024-04-22T06:52:33.918Z,102754.66
2024-04-22T06:55:25.443Z,102747.28
2024-04-22T06:58:17.200Z,102744.31
2024-04-22T07:01:05.890Z,102743.19
2024-04-22T07:03:57.147Z,102757.53
2024-04-22T07:06:50.863Z,102745.47
2024-04-22T07:09:42.025Z,102753.75
2024-04-22T07:12:30.447Z,102743.13
2024-04-22T07:15:22.250Z,102741.81
2024-04-22T07:18:10.933Z,102737.50
2024-04-22T07:21:02.096Z,102749.84
2024-04-22T07:23:53.184Z,102752.66
2024-04-22T07:26:45.035Z,102742.53
2024-04-22T07:29:34.475Z,102743.34
2024-04-22T07:32:26.482Z,102744.78
2024-04-22T07:35:16.633Z,102744.28
2024-04-22T07:38:12.879Z,102731.69
2024-04-22T07:41:07.847Z,102758.31
2024-04-22T07:43:56.522Z,102749.28
2024-04-22T07:46:47.633Z,102746.44
2024-04-22T07:49:36.143Z,102737.84
2024-04-22T07:52:28.248Z,102736.44
2024-04-22T07:55:17.674Z,102728.66
2024-04-22T07:58:13.061Z,102738.78
2024-04-22T08:01:03.523Z,102742.56
2024-04-22T08:03:55.470Z,102749.63
2024-04-22T08:06:48.297Z,102731.19
2024-04-22T08:09:39.723Z,102732.63
2024-04-22T08:12:31.263Z,102725.50
2024-04-22T08:15:22.520Z,102720.72
2024-04-22T08:18:16.046Z,102712.72
2024-04-22T08:21:06.860Z,102717.03
2024-04-22T08:23:58.024Z,102729.16
2024-04-22T08:26:46.562Z,102719.44
2024-04-22T08:29:37.952Z,102707.59
2024-04-22T08:32:29.402Z,102729.13
2024-04-22T08:35:20.676Z,102723.72
2024-04-22T08:38:09.177Z,102722.44
2024-04-22T08:41:00.639Z,102729.00
2024-04-22T08:43:50.629Z,102715.59
2024-04-22T08:46:41.880Z,102722.19
2024-04-22T08:49:33.082Z,102718.63
2024-04-22T08:52:25.346Z,102725.31
2024-04-22T08:55:14.189Z,102711.03
2024-04-22T08:58:05.279Z,102716.47
2024-04-22T09:00:53.904Z,102720.00
2024-04-22T09:03:45.181Z,102729.38
2024-04-22T09:06:36.385Z,102723.13
2024-04-22T09:09:40.424Z,102739.38
2024-04-22T09:12:38.934Z,102726.31
2024-04-22T09:15:28.218Z,102734.69
2024-04-22T09:18:20.845Z,102738.03
2024-04-22T09:21:11.543Z,102733.66
2024-04-22T09:24:05.274Z,102731.72
2024-04-22T09:26:53.848Z,102737.00
2024-04-22T09:29:47.369Z,102741.38
2024-04-22T09:32:38.199Z,102738.69
2024-04-22T09:35:30.752Z,102726.59
2024-04-22T09:38:28.418Z,102726.63
2024-04-22T09:41:30.366Z,102722.72
2024-04-22T09:44:23.166Z,102735.06
2024-04-22T09:47:12.735Z,102735.94
2024-04-22T09:50:06.041Z,102719.56
2024-04-22T09:52:56.178Z,102725.63
2024-04-22T09:55:49.476Z,102717.34
2024-04-22T09:58:42.141Z,102714.91
2024-04-22T10:01:33.785Z,102722.59
2024-04-22T10:04:22.773Z,102724.75
2024-04-22T10:07:14.227Z,102725.63
2024-04-22T10:10:02.843Z,102732.78
2024-04-22T10:12:54.452Z,102727.31
2024-04-22T10:15:47.478Z,102721.81
2024-04-22T10:18:38.525Z,102726.19
2024-04-22T10:21:28.843Z,102718.81
2024-04-22T10:24:30.213Z,102731.13
2024-04-22T10:27:18.751Z,102720.72
2024-04-22T10:30:11.469Z,102727.88
2024-04-22T10:33:03.028Z,102708.66
2024-04-22T10:35:54.464Z,102710.56
2024-04-22T10:38:42.979Z,102699.03
2024-04-22T10:41:34.306Z,102709.19
2024-04-22T10:44:22.840Z,102715.22
2024-04-22T10:47:14.923Z,102706.44
2024-04-22T10:50:15.852Z,102702.88
2024-04-22T10:53:08.727Z,102710.00
2024-04-22T10:55:57.535Z,102698.50
2024-04-22T10:58:48.934Z,102692.44
2024-04-22T11:01:42.566Z,102693.81
2024-04-22T11:04:34.187Z,102699.28
2024-04-22T11:07:27.799Z,102691.09
2024-04-22T11:10:28.062Z,102683.94
2024-04-22T11:13:23.944Z,102692.69
2024-04-22T11:16:17.419Z,102691.88
2024-04-22T11:19:07.989Z,102686.81
2024-04-22T11:21:59.252Z,102694.25
2024-04-22T11:24:50.721Z,102683.78
2024-04-22T11:27:41.996Z,102683.78
2024-04-22T11:30:33.112Z,102682.09
2024-04-22T11:33:25.013Z,102677.47
2024-04-22T11:36:16.245Z,102674.94
2024-04-22T11:39:13.135Z,102657.34
2024-04-22T11:42:07.536Z,102664.56
2024-04-22T11:44:59.164Z,102671.09
2024-04-22T11:47:48.290Z,102661.22
2024-04-22T11:50:40.700Z,102652.75
2024-04-22T11:53:29.377Z,102641.44
2024-04-22T11:56:21.326Z,102653.56
2024-04-22T11:59:12.404Z,102644.22
2024-04-22T12:02:03.767Z,102628.56
2024-04-22T12:04:55.963Z,102646.91
2024-04-22T12:07:47.692Z,102652.91
2024-04-22T12:10:38.879Z,102630.41
2024-04-22T12:13:29.821Z,102634.25
2024-04-22T12:16:23.717Z,102646.53
2024-04-22T12:19:12.307Z,102643.78
2024-04-22T12:22:03.430Z,102630.81
2024-04-22T12:24:51.910Z,102639.28
2024-04-22T12:27:43.365Z,102572.97
2024-04-22T12:30:31.858Z,102631.47
2024-04-22T12:33:25.912Z,102633.28
2024-04-22T12:36:14.431Z,102641.47
2024-04-22T12:39:05.506Z,102639.31
2024-04-22T12:41:54.373Z,102628.06
2024-04-22T12:44:45.390Z,102608.50
2024-04-22T12:47:52.421Z,102627.63
2024-04-22T12:50:50.031Z,102620.78
2024-04-22T12:53:41.536Z,102625.94
2024-04-22T12:56:32.627Z,102617.38
2024-04-22T12:59:23.682Z,102623.81
2024-04-22T13:02:16.823Z,102614.56
2024-04-22T13:05:09.185Z,102616.78
2024-04-22T13:08:04.032Z,102620.03
2024-04-22T13:10:55.483Z,102595.41
2024-04-22T13:13:46.723Z,102602.38
2024-04-22T13:16:37.892Z,102600.72
2024-04-22T13:19:29.115Z,102597.75
2024-04-22T13:22:17.901Z,102595.94
2024-04-22T13:25:12.210Z,102601.03
2024-04-22T13:28:00.856Z,102601.84
2024-04-22T13:30:54.333Z,102600.69
2024-04-22T13:33:44.537Z,102608.03
2024-04-22T13:36:37.914Z,102603.47
2024-04-22T13:39:26.431Z,102608.94
2024-04-22T13:42:20.168Z,102603.84
2024-04-22T13:45:08.840Z,102607.88
2024-04-22T13:48:00.262Z,102594.28
2024-04-22T13:50:48.902Z,102600.34
2024-04-22T13:53:40.029Z,102573.03
2024-04-22T13:56:28.476Z,102594.66
2024-04-22T13:59:22.293Z,102578.41
2024-04-22T14:02:10.851Z,102577.66
2024-04-22T14:05:02.016Z,102580.06
2024-04-22T14:07:50.604Z,102576.72
2024-04-22T14:10:42.084Z,102568.81
2024-04-22T14:13:30.646Z,102575.38
2024-04-22T14:16:24.396Z,102580.50
2024-04-22T14:19:12.905Z,102569.09
2024-04-22T14:22:04.333Z,102577.84
2024-04-22T14:24:52.897Z,102582.53
2024-04-22T14:27:44.000Z,102576.59
2024-04-22T14:30:32.595Z,102578.13
2024-04-22T14:33:26.533Z,102568.78
2024-04-22T14:36:15.058Z,102565.72
2024-04-22T14:39:06.260Z,102577.09
2024-04-22T14:41:54.785Z,102568.28
2024-04-22T14:44:47.042Z,102563.31
2024-04-22T14:47:36.950Z,102555.94
2024-04-22T14:50:30.784Z,102562.78
2024-04-22T14:53:19.306Z,102556.47
2024-04-22T14:56:11.042Z,102571.69
2024-04-22T14:59:00.874Z,102561.63
2024-04-22T15:01:53.170Z,102565.88
2024-04-22T15:04:44.649Z,102574.00
2024-04-22T15:07:36.239Z,102573.09
2024-04-22T15:10:27.458Z,102580.97
2024-04-22T15:13:16.026Z,102566.47
2024-04-22T15:16:07.695Z,102567.00
2024-04-22T15:18:58.993Z,102549.47
2024-04-22T15:21:47.510Z,102558.38
2024-04-22T15:24:41.302Z,102539.63
2024-04-22T15:27:29.772Z,102558.47
2024-04-22T15:30:20.979Z,102540.00
2024-04-22T15:33:11.009Z,102544.94
2024-04-22T15:36:04.615Z,102532.97
2024-04-22T15:38:53.213Z,102530.25
2024-04-22T15:41:47.335Z,102534.25
2024-04-22T15:44:35.826Z,102533.94
2024-04-22T15:47:27.093Z,102531.41
2024-04-22T15:50:15.740Z,102528.88
2024-04-22T15:53:08.666Z,102516.03
2024-04-22T15:55:57.757Z,102499.94
2024-04-22T15:58:51.962Z,102518.72
2024-04-22T16:01:41.047Z,102512.09
2024-04-22T16:04:32.518Z,102516.97
2024-04-22T16:07:22.929Z,102507.38
2024-04-22T16:10:14.433Z,102506.09
2024-04-22T16:13:03.023Z,102514.66
2024-04-22T16:15:56.797Z,102506.41
2024-04-22T16:18:48.404Z,102504.47
2024-04-22T16:21:36.994Z,102503.88
2024-04-22T16:24:28.485Z,102521.81
2024-04-22T16:27:17.012Z,102525.06
2024-04-22T16:30:09.457Z,102518.31
2024-04-22T16:33:00.707Z,102512.41
2024-04-22T16:35:52.201Z,102518.22
2024-04-22T16:38:40.674Z,102513.47
2024-04-22T16:41:31.888Z,102506.47
2024-04-22T16:44:21.911Z,102500.38
2024-04-22T16:47:13.243Z,102506.75
2024-04-22T16:50:04.694Z,102506.59
2024-04-22T16:52:55.889Z,102492.97
2024-04-22T16:55:44.491Z,102492.38
2024-04-22T16:58:35.644Z,102502.09
2024-04-22T17:01:25.071Z,102502.19
2024-04-22T17:04:16.457Z,102493.38
2024-04-22T17:07:07.788Z,102506.00
2024-04-22T17:09:58.907Z,102491.78
2024-04-22T17:12:51.329Z,102491.91
2024-04-22T17:15:40.098Z,102503.22
2024-04-22T17:18:31.312Z,102488.94
2024-04-22T17:21:19.914Z,102489.03
2024-04-22T17:24:13.863Z,102484.94
2024-04-22T17:27:02.372Z,102488.81
2024-04-22T17:29:53.666Z,102483.19
2024-04-22T17:32:42.930Z,102482.19
2024-04-22T17:35:34.077Z,102479.09
2024-04-22T17:38:25.715Z,102474.28
2024-04-22T17:41:16.967Z,102450.50
2024-04-22T17:44:09.117Z,102468.53
2024-04-22T17:46:58.630Z,102440.63
2024-04-22T17:49:50.203Z,102461.63
2024-04-22T17:52:41.534Z,102432.75
2024-04-22T17:55:33.814Z,102447.06
2024-04-22T17:58:25.235Z,102445.47
2024-04-22T18:01:17.531Z,102446.09
2024-04-22T18:04:06.175Z,102450.53
2024-04-22T18:06:57.505Z,102451.72
2024-04-22T18:09:46.088Z,102463.41
2024-04-22T18:12:38.183Z,102463.22
2024-04-22T18:15:29.317Z,102468.09
2024-04-22T18:18:20.490Z,102468.31
2024-04-22T18:21:11.973Z,102467.66
2024-04-22T18:24:03.339Z,102461.94
2024-04-22T18:26:56.107Z,102447.88
2024-04-22T18:29:44.533Z,102453.09
2024-04-22T18:32:38.530Z,102453.56
2024-04-22T18:35:27.065Z,102471.44
2024-04-22T18:38:18.486Z,102475.00
2024-04-22T18:41:10.238Z,102476.13
2024-04-22T18:44:02.143Z,102472.25
2024-04-22T18:46:50.684Z,102468.22
2024-04-22T18:49:44.659Z,102455.84
2024-04-22T18:52:33.236Z,102462.81
2024-04-22T18:55:24.550Z,102462.81
2024-04-22T18:58:13.026Z,102449.19
2024-04-22T19:01:04.322Z,102453.88
2024-04-22T19:03:52.878Z,102460.78
2024-04-22T19:06:47.041Z,102447.25
2024-04-22T19:09:38.276Z,102445.38
2024-04-22T19:12:26.787Z,102445.63
2024-04-22T19:15:18.033Z,102458.31
2024-04-22T19:18:07.105Z,102453.34
2024-04-22T19:20:58.233Z,102461.78
2024-04-22T19:23:52.067Z,102464.00
2024-04-22T19:26:40.488Z,102464.31
2024-04-22T19:29:31.534Z,102487.94
2024-04-22T19:32:19.977Z,102471.81
2024-04-22T19:35:11.723Z,102465.97
2024-04-22T19:38:02.878Z,102481.91
2024-04-22T19:40:56.646Z,102475.66
2024-04-22T19:43:45.204Z,102456.25
2024-04-22T19:46:36.721Z,102486.84
2024-04-22T19:49:25.359Z,102474.41
2024-04-22T19:52:16.658Z,102483.75
2024-04-22T19:55:05.866Z,102472.44
2024-04-22T19:57:59.817Z,102490.28
2024-04-22T20:00:48.485Z,102488.94
2024-04-22T20:03:40.131Z,102482.03
2024-04-22T20:06:28.835Z,102495.47
2024-04-22T20:09:20.416Z,102498.53
2024-04-22T20:12:09.007Z,102507.13
2024-04-22T20:15:03.172Z,102506.28
2024-04-22T20:18:04.969Z,102518.28
2024-04-22T20:20:59.678Z,102502.22
2024-04-22T20:23:48.266Z,102513.50
2024-04-22T20:26:39.430Z,102512.03
2024-04-22T20:29:27.897Z,102505.44
2024-04-22T20:32:21.738Z,102506.00
2024-04-22T20:35:12.967Z,102516.78
2024-04-22T20:38:01.471Z,102515.66
2024-04-22T20:41:00.461Z,102505.38
2024-04-22T20:43:48.995Z,102514.97
2024-04-22T20:46:43.195Z,102509.16
2024-04-22T20:49:34.429Z,102497.44
2024-04-22T20:52:25.556Z,102506.72
2024-04-22T20:55:14.726Z,102501.25
2024-04-22T20:58:05.856Z,102506.44
2024-04-22T21:00:55.057Z,102508.94
2024-04-22T21:03:46.167Z,102490.56
2024-04-22T21:06:37.307Z,102524.56
2024-04-22T21:09:28.422Z,102525.44
2024-04-22T21:12:17.967Z,102511.41
2024-04-22T21:15:10.041Z,102505.94
2024-04-22T21:17:58.583Z,102495.84
2024-04-22T21:20:50.061Z,102492.28
2024-04-22T21:23:44.203Z,102481.88
2024-04-22T21:26:32.934Z,102477.81
2024-04-22T21:29:24.413Z,102493.38
2024-04-22T21:32:12.774Z,102489.00
2024-04-22T21:35:04.690Z,102494.75
2024-04-22T21:37:53.449Z,102484.44
2024-04-22T21:40:47.404Z,102498.44
2024-04-22T21:43:37.605Z,102492.97
2024-04-22T21:46:28.809Z,102494.03
2024-04-22T21:49:17.243Z,102482.81
2024-04-22T21:52:10.599Z,102490.00
2024-04-22T21:54:59.590Z,102480.97
2024-04-22T21:58:48.135Z,102479.34
2024-04-22T22:02:36.767Z,102477.47
2024-04-22T22:06:21.152Z,102460.50
2024-04-22T22:09:29.025Z,102462.44
2024-04-22T22:12:21.528Z,102455.00
2024-04-22T22:15:14.810Z,102469.78
2024-04-22T22:18:03.785Z,102474.72
2024-04-22T22:20:55.191Z,102472.22
2024-04-22T22:23:43.683Z,102472.03
2024-04-22T22:26:37.511Z,102476.97
2024-04-22T22:29:25.887Z,102465.47
2024-04-22T22:32:17.045Z,102471.50
2024-04-22T22:35:06.090Z,102477.00
2024-04-22T22:37:57.681Z,102482.22
2024-04-22T22:40:46.162Z,102478.41
2024-04-22T22:43:39.896Z,102477.53
2024-04-22T22:46:28.444Z,102484.66
2024-04-22T22:49:19.690Z,102480.00
2024-04-22T22:52:08.224Z,102487.72
2024-04-22T22:54:59.564Z,102476.19
2024-04-22T22:57:48.017Z,102467.94
2024-04-22T23:00:41.984Z,102474.50
2024-04-22T23:03:30.401Z,102484.41
2024-04-22T23:06:21.462Z,102468.53
2024-04-22T23:09:10.160Z,102468.19
2024-04-22T23:12:01.555Z,102479.47
2024-04-22T23:14:50.151Z,102469.03
2024-04-22T23:17:43.904Z,102467.94
2024-04-22T23:20:32.452Z,102480.53
2024-04-22T23:23:23.504Z,102483.03
2024-04-22T23:26:11.988Z,102483.88
2024-04-22T23:29:03.135Z,102468.19
2024-04-22T23:31:51.673Z,102465.75
2024-04-22T23:34:45.443Z,102466.38
2024-04-22T23:37:33.969Z,102463.03
2024-04-22T23:40:25.219Z,102460.84
2024-04-22T23:43:13.740Z,102455.72
2024-04-22T23:46:05.142Z,102454.59
2024-04-22T23:48:56.317Z,102462.81
2024-04-22T23:51:47.615Z,102457.34
2024-04-22T23:54:38.669Z,102464.16
2024-04-22T23:57:27.069Z,102457.56
